sensor_id;sensor_type;location;lat;lon;timestamp;P1;durP1;ratioP1;P2;durP2;ratioP2
37847;SDS011;23688;33.130;-117.188;2023-10-08T00:00:04;6.40;;;3.28;;
37847;SDS011;23688;33.130;-117.188;2023-10-08T00:02:50;6.25;;;3.58;;
37847;SDS011;23688;33.130;-117.188;2023-10-08T00:05:21;6.45;;;3.42;;
37847;SDS011;23688;33.130;-117.188;2023-10-08T00:07:47;5.78;;;3.40;;
37847;SDS011;23688;33.130;-117.188;2023-10-08T00:10:14;6.45;;;3.53;;
37847;SDS011;23688;33.130;-117.188;2023-10-08T00:12:40;8.50;;;4.13;;
37847;SDS011;23688;33.130;-117.188;2023-10-08T00:15:07;8.93;;;3.92;;
37847;SDS011;23688;33.130;-117.188;2023-10-08T00:17:35;6.20;;;4.15;;
37847;SDS011;23688;33.130;-117.188;2023-10-08T00:20:02;6.35;;;3.60;;
37847;SDS011;23688;33.130;-117.188;2023-10-08T00:22:29;10.85;;;4.20;;
37847;SDS011;23688;33.130;-117.188;2023-10-08T00:25:01;6.72;;;3.88;;
37847;SDS011;23688;33.130;-117.188;2023-10-08T00:27:30;11.48;;;3.65;;
37847;SDS011;23688;33.130;-117.188;2023-10-08T00:30:04;5.30;;;3.05;;
37847;SDS011;23688;33.130;-117.188;2023-10-08T00:32:39;8.93;;;2.88;;
37847;SDS011;23688;33.130;-117.188;2023-10-08T00:35:06;5.82;;;3.17;;
37847;SDS011;23688;33.130;-117.188;2023-10-08T00:37:33;12.15;;;3.53;;
37847;SDS011;23688;33.130;-117.188;2023-10-08T00:39:59;6.13;;;2.85;;
37847;SDS011;23688;33.130;-117.188;2023-10-08T00:42:30;4.65;;;3.50;;
37847;SDS011;23688;33.130;-117.188;2023-10-08T00:44:56;9.13;;;3.30;;
37847;SDS011;23688;33.130;-117.188;2023-10-08T00:47:23;5.70;;;3.17;;
37847;SDS011;23688;33.130;-117.188;2023-10-08T00:49:51;6.43;;;3.00;;
37847;SDS011;23688;33.130;-117.188;2023-10-08T00:52:41;7.22;;;3.72;;
37847;SDS011;23688;33.130;-117.188;2023-10-08T00:55:22;10.40;;;4.55;;
37847;SDS011;23688;33.130;-117.188;2023-10-08T00:57:55;6.30;;;4.47;;
37847;SDS011;23688;33.130;-117.188;2023-10-08T01:00:24;6.95;;;4.30;;
37847;SDS011;23688;33.130;-117.188;2023-10-08T01:02:58;8.48;;;4.72;;
37847;SDS011;23688;33.130;-117.188;2023-10-08T01:05:28;6.97;;;3.83;;
37847;SDS011;23688;33.130;-117.188;2023-10-08T01:08:15;6.65;;;4.35;;
37847;SDS011;23688;33.130;-117.188;2023-10-08T01:11:26;7.85;;;4.22;;
37847;SDS011;23688;33.130;-117.188;2023-10-08T01:14:12;10.48;;;4.10;;
37847;SDS011;23688;33.130;-117.188;2023-10-08T01:16:40;8.82;;;4.70;;
37847;SDS011;23688;33.130;-117.188;2023-10-08T01:19:11;11.18;;;4.28;;
37847;SDS011;23688;33.130;-117.188;2023-10-08T01:21:44;8.93;;;4.15;;
37847;SDS011;23688;33.130;-117.188;2023-10-08T01:24:11;8.40;;;4.53;;
37847;SDS011;23688;33.130;-117.188;2023-10-08T01:26:41;8.35;;;4.55;;
37847;SDS011;23688;33.130;-117.188;2023-10-08T01:29:10;6.20;;;4.32;;
37847;SDS011;23688;33.130;-117.188;2023-10-08T01:31:46;6.47;;;4.47;;
37847;SDS011;23688;33.130;-117.188;2023-10-08T01:34:20;14.55;;;4.40;;
37847;SDS011;23688;33.130;-117.188;2023-10-08T01:36:52;7.03;;;4.45;;
37847;SDS011;23688;33.130;-117.188;2023-10-08T01:39:19;7.47;;;4.55;;
37847;SDS011;23688;33.130;-117.188;2023-10-08T01:41:45;9.60;;;4.57;;
37847;SDS011;23688;33.130;-117.188;2023-10-08T01:44:12;7.07;;;4.30;;
37847;SDS011;23688;33.130;-117.188;2023-10-08T01:46:38;9.23;;;4.25;;
37847;SDS011;23688;33.130;-117.188;2023-10-08T01:49:07;8.57;;;4.65;;
37847;SDS011;23688;33.130;-117.188;2023-10-08T01:51:39;8.40;;;4.43;;
37847;SDS011;23688;33.130;-117.188;2023-10-08T01:54:12;8.18;;;5.00;;
37847;SDS011;23688;33.130;-117.188;2023-10-08T01:56:43;9.13;;;4.75;;
37847;SDS011;23688;33.130;-117.188;2023-10-08T01:59:10;9.68;;;5.65;;
37847;SDS011;23688;33.130;-117.188;2023-10-08T02:01:39;8.10;;;4.57;;
37847;SDS011;23688;33.130;-117.188;2023-10-08T02:04:06;7.85;;;4.47;;
37847;SDS011;23688;33.130;-117.188;2023-10-08T02:06:33;5.60;;;4.45;;
37847;SDS011;23688;33.130;-117.188;2023-10-08T02:09:00;9.40;;;5.03;;
37847;SDS011;23688;33.130;-117.188;2023-10-08T02:14:11;9.48;;;3.92;;
37847;SDS011;23688;33.130;-117.188;2023-10-08T02:16:40;7.72;;;3.83;;
37847;SDS011;23688;33.130;-117.188;2023-10-08T02:19:07;7.68;;;4.28;;
37847;SDS011;23688;33.130;-117.188;2023-10-08T02:21:36;9.30;;;4.30;;
37847;SDS011;23688;33.130;-117.188;2023-10-08T02:24:06;10.10;;;5.00;;
37847;SDS011;23688;33.130;-117.188;2023-10-08T02:26:34;11.43;;;5.18;;
37847;SDS011;23688;33.130;-117.188;2023-10-08T02:29:01;12.13;;;4.78;;
37847;SDS011;23688;33.130;-117.188;2023-10-08T02:31:31;7.95;;;4.20;;
37847;SDS011;23688;33.130;-117.188;2023-10-08T02:33:58;9.23;;;4.30;;
37847;SDS011;23688;33.130;-117.188;2023-10-08T02:36:24;16.35;;;4.97;;
37847;SDS011;23688;33.130;-117.188;2023-10-08T02:38:50;7.57;;;3.85;;
37847;SDS011;23688;33.130;-117.188;2023-10-08T02:41:17;6.53;;;3.58;;
37847;SDS011;23688;33.130;-117.188;2023-10-08T02:43:43;9.68;;;4.53;;
37847;SDS011;23688;33.130;-117.188;2023-10-08T02:46:10;9.85;;;4.35;;
37847;SDS011;23688;33.130;-117.188;2023-10-08T02:48:41;9.00;;;4.32;;
37847;SDS011;23688;33.130;-117.188;2023-10-08T02:51:07;11.32;;;4.47;;
37847;SDS011;23688;33.130;-117.188;2023-10-08T02:53:40;12.45;;;4.63;;
37847;SDS011;23688;33.130;-117.188;2023-10-08T02:56:08;7.78;;;4.25;;
37847;SDS011;23688;33.130;-117.188;2023-10-08T02:58:42;7.72;;;4.47;;
37847;SDS011;23688;33.130;-117.188;2023-10-08T03:01:12;8.43;;;3.85;;
37847;SDS011;23688;33.130;-117.188;2023-10-08T03:03:40;9.40;;;3.88;;
37847;SDS011;23688;33.130;-117.188;2023-10-08T03:06:07;10.85;;;4.47;;
37847;SDS011;23688;33.130;-117.188;2023-10-08T03:08:40;14.65;;;4.68;;
37847;SDS011;23688;33.130;-117.188;2023-10-08T03:11:10;11.40;;;5.25;;
37847;SDS011;23688;33.130;-117.188;2023-10-08T03:13:45;12.10;;;6.25;;
37847;SDS011;23688;33.130;-117.188;2023-10-08T03:16:14;14.30;;;5.18;;
37847;SDS011;23688;33.130;-117.188;2023-10-08T03:18:41;16.58;;;5.20;;
37847;SDS011;23688;33.130;-117.188;2023-10-08T03:21:15;8.90;;;4.75;;
37847;SDS011;23688;33.130;-117.188;2023-10-08T03:24:07;12.45;;;4.82;;
37847;SDS011;23688;33.130;-117.188;2023-10-08T03:27:09;9.40;;;4.00;;
37847;SDS011;23688;33.130;-117.188;2023-10-08T03:29:40;7.25;;;3.90;;
37847;SDS011;23688;33.130;-117.188;2023-10-08T03:32:13;7.55;;;4.13;;
37847;SDS011;23688;33.130;-117.188;2023-10-08T03:34:46;8.35;;;3.67;;
37847;SDS011;23688;33.130;-117.188;2023-10-08T03:37:14;10.93;;;4.25;;
37847;SDS011;23688;33.130;-117.188;2023-10-08T03:39:55;11.15;;;3.60;;
37847;SDS011;23688;33.130;-117.188;2023-10-08T03:42:40;8.77;;;3.85;;
37847;SDS011;23688;33.130;-117.188;2023-10-08T03:45:06;8.70;;;3.85;;
37847;SDS011;23688;33.130;-117.188;2023-10-08T03:47:38;7.00;;;3.50;;
37847;SDS011;23688;33.130;-117.188;2023-10-08T03:50:06;8.32;;;3.20;;
37847;SDS011;23688;33.130;-117.188;2023-10-08T03:52:41;4.88;;;3.08;;
37847;SDS011;23688;33.130;-117.188;2023-10-08T03:55:09;6.80;;;3.55;;
37847;SDS011;23688;33.130;-117.188;2023-10-08T03:57:45;7.28;;;3.30;;
37847;SDS011;23688;33.130;-117.188;2023-10-08T04:00:22;6.05;;;3.08;;
37847;SDS011;23688;33.130;-117.188;2023-10-08T04:02:57;16.63;;;4.63;;
37847;SDS011;23688;33.130;-117.188;2023-10-08T04:05:34;7.88;;;3.42;;
37847;SDS011;23688;33.130;-117.188;2023-10-08T04:08:36;8.32;;;4.05;;
37847;SDS011;23688;33.130;-117.188;2023-10-08T04:11:09;8.82;;;3.90;;
37847;SDS011;23688;33.130;-117.188;2023-10-08T04:13:54;7.50;;;4.13;;
37847;SDS011;23688;33.130;-117.188;2023-10-08T04:16:20;8.82;;;3.90;;
37847;SDS011;23688;33.130;-117.188;2023-10-08T04:18:46;8.63;;;4.18;;
37847;SDS011;23688;33.130;-117.188;2023-10-08T04:21:17;7.57;;;4.15;;
37847;SDS011;23688;33.130;-117.188;2023-10-08T04:23:46;7.93;;;4.00;;
37847;SDS011;23688;33.130;-117.188;2023-10-08T04:26:17;9.50;;;3.90;;
37847;SDS011;23688;33.130;-117.188;2023-10-08T04:28:55;8.02;;;4.18;;
37847;SDS011;23688;33.130;-117.188;2023-10-08T04:31:32;10.57;;;4.50;;
37847;SDS011;23688;33.130;-117.188;2023-10-08T04:34:09;8.57;;;3.75;;
37847;SDS011;23688;33.130;-117.188;2023-10-08T04:36:45;5.93;;;4.30;;
37847;SDS011;23688;33.130;-117.188;2023-10-08T04:39:12;9.77;;;4.07;;
37847;SDS011;23688;33.130;-117.188;2023-10-08T04:41:47;8.95;;;3.92;;
37847;SDS011;23688;33.130;-117.188;2023-10-08T04:44:18;8.23;;;3.92;;
37847;SDS011;23688;33.130;-117.188;2023-10-08T04:46:47;4.53;;;3.75;;
37847;SDS011;23688;33.130;-117.188;2023-10-08T04:49:17;6.95;;;3.83;;
37847;SDS011;23688;33.130;-117.188;2023-10-08T04:51:54;9.55;;;4.00;;
37847;SDS011;23688;33.130;-117.188;2023-10-08T04:54:25;9.70;;;4.75;;
37847;SDS011;23688;33.130;-117.188;2023-10-08T04:56:56;6.15;;;4.15;;
37847;SDS011;23688;33.130;-117.188;2023-10-08T04:59:24;8.57;;;3.63;;
37847;SDS011;23688;33.130;-117.188;2023-10-08T05:01:58;6.50;;;3.63;;
37847;SDS011;23688;33.130;-117.188;2023-10-08T05:04:39;6.78;;;4.05;;
37847;SDS011;23688;33.130;-117.188;2023-10-08T05:07:24;10.10;;;3.85;;
37847;SDS011;23688;33.130;-117.188;2023-10-08T05:10:09;7.30;;;3.70;;
37847;SDS011;23688;33.130;-117.188;2023-10-08T05:12:37;6.95;;;3.72;;
37847;SDS011;23688;33.130;-117.188;2023-10-08T05:15:12;6.97;;;3.38;;
37847;SDS011;23688;33.130;-117.188;2023-10-08T05:17:42;6.50;;;3.42;;
37847;SDS011;23688;33.130;-117.188;2023-10-08T05:20:16;5.80;;;3.67;;
37847;SDS011;23688;33.130;-117.188;2023-10-08T05:22:58;10.68;;;3.50;;
37847;SDS011;23688;33.130;-117.188;2023-10-08T05:25:42;8.07;;;3.27;;
37847;SDS011;23688;33.130;-117.188;2023-10-08T05:28:28;7.88;;;3.85;;
37847;SDS011;23688;33.130;-117.188;2023-10-08T05:30:56;6.63;;;3.50;;
37847;SDS011;23688;33.130;-117.188;2023-10-08T05:33:40;6.57;;;3.20;;
37847;SDS011;23688;33.130;-117.188;2023-10-08T05:36:46;7.53;;;3.08;;
37847;SDS011;23688;33.130;-117.188;2023-10-08T05:39:35;5.95;;;3.20;;
37847;SDS011;23688;33.130;-117.188;2023-10-08T05:42:04;7.22;;;2.92;;
37847;SDS011;23688;33.130;-117.188;2023-10-08T05:44:45;4.10;;;2.88;;
37847;SDS011;23688;33.130;-117.188;2023-10-08T05:47:32;7.13;;;3.65;;
37847;SDS011;23688;33.130;-117.188;2023-10-08T05:49:58;8.02;;;3.15;;
37847;SDS011;23688;33.130;-117.188;2023-10-08T05:52:44;6.78;;;3.40;;
37847;SDS011;23688;33.130;-117.188;2023-10-08T05:55:33;6.03;;;3.30;;
37847;SDS011;23688;33.130;-117.188;2023-10-08T05:58:11;7.53;;;3.28;;
37847;SDS011;23688;33.130;-117.188;2023-10-08T06:00:59;6.13;;;3.25;;
37847;SDS011;23688;33.130;-117.188;2023-10-08T06:03:51;5.32;;;2.88;;
37847;SDS011;23688;33.130;-117.188;2023-10-08T06:06:37;4.40;;;2.78;;
37847;SDS011;23688;33.130;-117.188;2023-10-08T06:09:12;6.88;;;3.13;;
37847;SDS011;23688;33.130;-117.188;2023-10-08T06:11:48;4.32;;;3.10;;
37847;SDS011;23688;33.130;-117.188;2023-10-08T06:14:43;7.05;;;3.35;;
37847;SDS011;23688;33.130;-117.188;2023-10-08T06:17:33;6.25;;;3.88;;
37847;SDS011;23688;33.130;-117.188;2023-10-08T06:20:10;6.78;;;4.20;;
37847;SDS011;23688;33.130;-117.188;2023-10-08T06:22:42;17.98;;;3.90;;
37847;SDS011;23688;33.130;-117.188;2023-10-08T06:25:09;6.88;;;3.50;;
37847;SDS011;23688;33.130;-117.188;2023-10-08T06:27:43;6.57;;;3.50;;
37847;SDS011;23688;33.130;-117.188;2023-10-08T06:30:12;4.68;;;2.78;;
37847;SDS011;23688;33.130;-117.188;2023-10-08T06:32:43;7.35;;;3.28;;
37847;SDS011;23688;33.130;-117.188;2023-10-08T06:35:10;3.95;;;2.65;;
37847;SDS011;23688;33.130;-117.188;2023-10-08T06:37:44;8.98;;;4.53;;
37847;SDS011;23688;33.130;-117.188;2023-10-08T06:40:11;7.55;;;3.72;;
37847;SDS011;23688;33.130;-117.188;2023-10-08T06:42:58;8.10;;;4.20;;
37847;SDS011;23688;33.130;-117.188;2023-10-08T06:45:46;7.22;;;3.35;;
37847;SDS011;23688;33.130;-117.188;2023-10-08T06:48:13;6.57;;;2.85;;
37847;SDS011;23688;33.130;-117.188;2023-10-08T06:50:49;6.75;;;3.65;;
37847;SDS011;23688;33.130;-117.188;2023-10-08T06:53:17;5.10;;;3.10;;
37847;SDS011;23688;33.130;-117.188;2023-10-08T06:55:44;6.03;;;3.90;;
37847;SDS011;23688;33.130;-117.188;2023-10-08T06:58:15;7.53;;;4.22;;
37847;SDS011;23688;33.130;-117.188;2023-10-08T07:00:43;7.10;;;4.70;;
37847;SDS011;23688;33.130;-117.188;2023-10-08T07:03:13;6.55;;;3.97;;
37847;SDS011;23688;33.130;-117.188;2023-10-08T07:05:44;8.88;;;4.15;;
37847;SDS011;23688;33.130;-117.188;2023-10-08T07:08:20;11.68;;;4.35;;
37847;SDS011;23688;33.130;-117.188;2023-10-08T07:10:49;6.85;;;4.43;;
37847;SDS011;23688;33.130;-117.188;2023-10-08T07:13:16;15.43;;;4.20;;
37847;SDS011;23688;33.130;-117.188;2023-10-08T07:15:45;10.73;;;4.72;;
37847;SDS011;23688;33.130;-117.188;2023-10-08T07:18:12;7.93;;;3.50;;
37847;SDS011;23688;33.130;-117.188;2023-10-08T07:20:44;11.32;;;4.00;;
37847;SDS011;23688;33.130;-117.188;2023-10-08T07:23:11;6.20;;;3.60;;
37847;SDS011;23688;33.130;-117.188;2023-10-08T07:25:51;6.57;;;3.65;;
37847;SDS011;23688;33.130;-117.188;2023-10-08T07:28:19;8.25;;;4.00;;
37847;SDS011;23688;33.130;-117.188;2023-10-08T07:30:46;7.22;;;3.97;;
37847;SDS011;23688;33.130;-117.188;2023-10-08T07:33:14;4.70;;;3.53;;
37847;SDS011;23688;33.130;-117.188;2023-10-08T07:35:45;10.23;;;4.03;;
37847;SDS011;23688;33.130;-117.188;2023-10-08T07:38:29;10.30;;;3.78;;
37847;SDS011;23688;33.130;-117.188;2023-10-08T07:40:56;6.18;;;4.15;;
37847;SDS011;23688;33.130;-117.188;2023-10-08T07:43:22;12.48;;;3.13;;
37847;SDS011;23688;33.130;-117.188;2023-10-08T07:45:48;10.80;;;3.35;;
37847;SDS011;23688;33.130;-117.188;2023-10-08T07:48:15;6.45;;;3.40;;
37847;SDS011;23688;33.130;-117.188;2023-10-08T07:50:42;10.05;;;3.50;;
37847;SDS011;23688;33.130;-117.188;2023-10-08T07:53:12;10.48;;;3.72;;
37847;SDS011;23688;33.130;-117.188;2023-10-08T07:55:44;7.47;;;4.05;;
37847;SDS011;23688;33.130;-117.188;2023-10-08T07:58:13;10.00;;;4.32;;
37847;SDS011;23688;33.130;-117.188;2023-10-08T08:00:40;9.77;;;4.00;;
37847;SDS011;23688;33.130;-117.188;2023-10-08T08:03:07;5.53;;;3.50;;
37847;SDS011;23688;33.130;-117.188;2023-10-08T08:05:36;9.38;;;2.80;;
37847;SDS011;23688;33.130;-117.188;2023-10-08T08:08:06;6.60;;;2.78;;
37847;SDS011;23688;33.130;-117.188;2023-10-08T08:10:32;11.70;;;3.53;;
37847;SDS011;23688;33.130;-117.188;2023-10-08T08:13:03;7.68;;;4.45;;
37847;SDS011;23688;33.130;-117.188;2023-10-08T08:15:34;4.63;;;3.63;;
37847;SDS011;23688;33.130;-117.188;2023-10-08T08:18:07;5.78;;;3.45;;
37847;SDS011;23688;33.130;-117.188;2023-10-08T08:20:36;4.82;;;4.03;;
37847;SDS011;23688;33.130;-117.188;2023-10-08T08:23:09;11.60;;;4.40;;
37847;SDS011;23688;33.130;-117.188;2023-10-08T08:25:38;6.53;;;4.03;;
37847;SDS011;23688;33.130;-117.188;2023-10-08T08:28:11;6.60;;;4.55;;
37847;SDS011;23688;33.130;-117.188;2023-10-08T08:30:46;13.68;;;4.70;;
37847;SDS011;23688;33.130;-117.188;2023-10-08T08:33:17;5.75;;;3.97;;
37847;SDS011;23688;33.130;-117.188;2023-10-08T08:35:58;9.38;;;4.65;;
37847;SDS011;23688;33.130;-117.188;2023-10-08T08:38:27;13.82;;;5.70;;
37847;SDS011;23688;33.130;-117.188;2023-10-08T08:41:03;9.45;;;4.80;;
37847;SDS011;23688;33.130;-117.188;2023-10-08T08:43:33;12.65;;;5.50;;
37847;SDS011;23688;33.130;-117.188;2023-10-08T08:48:29;7.80;;;4.85;;
37847;SDS011;23688;33.130;-117.188;2023-10-08T08:50:57;14.95;;;5.32;;
37847;SDS011;23688;33.130;-117.188;2023-10-08T08:53:24;11.93;;;5.32;;
37847;SDS011;23688;33.130;-117.188;2023-10-08T08:55:51;9.60;;;4.60;;
37847;SDS011;23688;33.130;-117.188;2023-10-08T08:58:20;8.02;;;3.95;;
37847;SDS011;23688;33.130;-117.188;2023-10-08T09:00:48;6.10;;;3.33;;
37847;SDS011;23688;33.130;-117.188;2023-10-08T09:03:17;5.70;;;3.13;;
37847;SDS011;23688;33.130;-117.188;2023-10-08T09:05:45;6.47;;;3.08;;
37847;SDS011;23688;33.130;-117.188;2023-10-08T09:08:16;6.03;;;3.50;;
37847;SDS011;23688;33.130;-117.188;2023-10-08T09:10:44;6.35;;;3.80;;
37847;SDS011;23688;33.130;-117.188;2023-10-08T09:13:18;6.50;;;4.25;;
37847;SDS011;23688;33.130;-117.188;2023-10-08T09:15:50;9.63;;;3.75;;
37847;SDS011;23688;33.130;-117.188;2023-10-08T09:18:17;9.30;;;3.42;;
37847;SDS011;23688;33.130;-117.188;2023-10-08T09:20:43;7.50;;;3.47;;
37847;SDS011;23688;33.130;-117.188;2023-10-08T09:23:11;6.43;;;4.03;;
37847;SDS011;23688;33.130;-117.188;2023-10-08T09:25:43;6.88;;;3.67;;
37847;SDS011;23688;33.130;-117.188;2023-10-08T09:28:14;7.57;;;3.67;;
37847;SDS011;23688;33.130;-117.188;2023-10-08T09:30:40;7.18;;;3.10;;
37847;SDS011;23688;33.130;-117.188;2023-10-08T09:33:07;5.50;;;2.60;;
37847;SDS011;23688;33.130;-117.188;2023-10-08T09:35:36;5.55;;;3.40;;
37847;SDS011;23688;33.130;-117.188;2023-10-08T09:38:03;5.68;;;2.92;;
37847;SDS011;23688;33.130;-117.188;2023-10-08T09:40:30;6.80;;;3.22;;
37847;SDS011;23688;33.130;-117.188;2023-10-08T09:42:57;7.28;;;3.67;;
37847;SDS011;23688;33.130;-117.188;2023-10-08T09:45:25;6.72;;;3.85;;
37847;SDS011;23688;33.130;-117.188;2023-10-08T09:47:53;9.80;;;3.90;;
37847;SDS011;23688;33.130;-117.188;2023-10-08T09:50:25;8.35;;;4.43;;
37847;SDS011;23688;33.130;-117.188;2023-10-08T09:55:49;11.75;;;4.13;;
37847;SDS011;23688;33.130;-117.188;2023-10-08T09:58:24;9.35;;;3.67;;
37847;SDS011;23688;33.130;-117.188;2023-10-08T10:00:53;5.93;;;3.78;;
37847;SDS011;23688;33.130;-117.188;2023-10-08T10:03:21;9.88;;;3.92;;
37847;SDS011;23688;33.130;-117.188;2023-10-08T10:05:49;5.53;;;4.13;;
37847;SDS011;23688;33.130;-117.188;2023-10-08T10:08:23;9.55;;;4.22;;
37847;SDS011;23688;33.130;-117.188;2023-10-08T10:13:28;8.02;;;4.18;;
37847;SDS011;23688;33.130;-117.188;2023-10-08T10:15:59;6.93;;;4.38;;
37847;SDS011;23688;33.130;-117.188;2023-10-08T10:20:58;7.40;;;4.17;;
37847;SDS011;23688;33.130;-117.188;2023-10-08T10:26:20;6.07;;;3.60;;
37847;SDS011;23688;33.130;-117.188;2023-10-08T10:31:41;6.03;;;3.78;;
37847;SDS011;23688;33.130;-117.188;2023-10-08T10:34:25;5.60;;;3.45;;
37847;SDS011;23688;33.130;-117.188;2023-10-08T10:36:54;8.88;;;4.25;;
37847;SDS011;23688;33.130;-117.188;2023-10-08T10:39:24;5.97;;;3.90;;
37847;SDS011;23688;33.130;-117.188;2023-10-08T10:41:57;8.43;;;3.95;;
37847;SDS011;23688;33.130;-117.188;2023-10-08T10:44:32;6.95;;;3.90;;
37847;SDS011;23688;33.130;-117.188;2023-10-08T10:47:02;7.65;;;4.18;;
37847;SDS011;23688;33.130;-117.188;2023-10-08T10:52:17;10.25;;;4.90;;
37847;SDS011;23688;33.130;-117.188;2023-10-08T10:55:03;9.20;;;4.80;;
37847;SDS011;23688;33.130;-117.188;2023-10-08T10:57:55;5.63;;;4.00;;
37847;SDS011;23688;33.130;-117.188;2023-10-08T11:00:28;5.40;;;3.80;;
37847;SDS011;23688;33.130;-117.188;2023-10-08T11:02:58;6.55;;;3.63;;
37847;SDS011;23688;33.130;-117.188;2023-10-08T11:05:35;10.32;;;3.88;;
37847;SDS011;23688;33.130;-117.188;2023-10-08T11:08:05;4.97;;;3.45;;
37847;SDS011;23688;33.130;-117.188;2023-10-08T11:10:35;9.80;;;4.28;;
37847;SDS011;23688;33.130;-117.188;2023-10-08T11:13:23;9.50;;;3.85;;
37847;SDS011;23688;33.130;-117.188;2023-10-08T11:16:10;9.23;;;4.03;;
37847;SDS011;23688;33.130;-117.188;2023-10-08T11:18:45;9.85;;;3.95;;
37847;SDS011;23688;33.130;-117.188;2023-10-08T11:21:23;8.77;;;3.33;;
37847;SDS011;23688;33.130;-117.188;2023-10-08T11:23:51;5.68;;;3.38;;
37847;SDS011;23688;33.130;-117.188;2023-10-08T11:26:19;5.15;;;3.22;;
37847;SDS011;23688;33.130;-117.188;2023-10-08T11:28:57;6.90;;;5.00;;
37847;SDS011;23688;33.130;-117.188;2023-10-08T11:31:26;6.03;;;3.88;;
37847;SDS011;23688;33.130;-117.188;2023-10-08T11:33:58;8.23;;;3.80;;
37847;SDS011;23688;33.130;-117.188;2023-10-08T11:36:27;6.82;;;3.65;;
37847;SDS011;23688;33.130;-117.188;2023-10-08T11:38:55;8.52;;;4.57;;
37847;SDS011;23688;33.130;-117.188;2023-10-08T11:41:32;6.10;;;4.35;;
37847;SDS011;23688;33.130;-117.188;2023-10-08T11:44:15;7.45;;;4.03;;
37847;SDS011;23688;33.130;-117.188;2023-10-08T11:46:45;10.13;;;4.22;;
37847;SDS011;23688;33.130;-117.188;2023-10-08T11:49:17;6.95;;;3.92;;
37847;SDS011;23688;33.130;-117.188;2023-10-08T11:51:44;5.97;;;4.05;;
37847;SDS011;23688;33.130;-117.188;2023-10-08T11:54:11;9.40;;;4.85;;
37847;SDS011;23688;33.130;-117.188;2023-10-08T11:56:38;5.93;;;3.88;;
37847;SDS011;23688;33.130;-117.188;2023-10-08T11:59:05;8.50;;;3.63;;
37847;SDS011;23688;33.130;-117.188;2023-10-08T12:01:37;13.68;;;4.60;;
37847;SDS011;23688;33.130;-117.188;2023-10-08T12:04:08;6.85;;;4.03;;
37847;SDS011;23688;33.130;-117.188;2023-10-08T12:06:42;8.35;;;4.30;;
37847;SDS011;23688;33.130;-117.188;2023-10-08T12:09:18;9.18;;;4.47;;
37847;SDS011;23688;33.130;-117.188;2023-10-08T12:11:50;8.48;;;3.95;;
37847;SDS011;23688;33.130;-117.188;2023-10-08T12:14:17;8.20;;;5.20;;
37847;SDS011;23688;33.130;-117.188;2023-10-08T12:16:43;10.15;;;4.53;;
37847;SDS011;23688;33.130;-117.188;2023-10-08T12:19:11;6.05;;;4.07;;
37847;SDS011;23688;33.130;-117.188;2023-10-08T12:21:43;8.05;;;3.85;;
37847;SDS011;23688;33.130;-117.188;2023-10-08T12:24:14;5.38;;;3.35;;
37847;SDS011;23688;33.130;-117.188;2023-10-08T12:26:41;7.07;;;3.90;;
37847;SDS011;23688;33.130;-117.188;2023-10-08T12:29:15;4.45;;;3.22;;
37847;SDS011;23688;33.130;-117.188;2023-10-08T12:31:44;6.80;;;3.47;;
37847;SDS011;23688;33.130;-117.188;2023-10-08T12:34:15;7.22;;;4.03;;
37847;SDS011;23688;33.130;-117.188;2023-10-08T12:36:42;7.00;;;3.90;;
37847;SDS011;23688;33.130;-117.188;2023-10-08T12:39:08;8.05;;;3.65;;
37847;SDS011;23688;33.130;-117.188;2023-10-08T12:41:43;6.15;;;3.35;;
37847;SDS011;23688;33.130;-117.188;2023-10-08T12:44:10;4.43;;;3.22;;
37847;SDS011;23688;33.130;-117.188;2023-10-08T12:46:37;6.63;;;3.70;;
37847;SDS011;23688;33.130;-117.188;2023-10-08T12:49:03;9.02;;;4.35;;
37847;SDS011;23688;33.130;-117.188;2023-10-08T12:51:30;7.50;;;3.88;;
37847;SDS011;23688;33.130;-117.188;2023-10-08T12:54:01;5.82;;;3.60;;
37847;SDS011;23688;33.130;-117.188;2023-10-08T12:56:36;6.72;;;3.65;;
37847;SDS011;23688;33.130;-117.188;2023-10-08T12:59:14;6.22;;;3.70;;
37847;SDS011;23688;33.130;-117.188;2023-10-08T13:01:49;7.68;;;3.25;;
37847;SDS011;23688;33.130;-117.188;2023-10-08T13:04:22;6.55;;;3.47;;
37847;SDS011;23688;33.130;-117.188;2023-10-08T13:06:56;6.20;;;3.95;;
37847;SDS011;23688;33.130;-117.188;2023-10-08T13:09:26;6.38;;;3.58;;
37847;SDS011;23688;33.130;-117.188;2023-10-08T13:11:56;5.63;;;3.92;;
37847;SDS011;23688;33.130;-117.188;2023-10-08T13:16:51;6.40;;;3.15;;
37847;SDS011;23688;33.130;-117.188;2023-10-08T13:19:19;5.07;;;3.40;;
37847;SDS011;23688;33.130;-117.188;2023-10-08T13:21:48;8.48;;;4.22;;
37847;SDS011;23688;33.130;-117.188;2023-10-08T13:24:17;11.07;;;3.72;;
37847;SDS011;23688;33.130;-117.188;2023-10-08T13:26:44;9.13;;;4.10;;
37847;SDS011;23688;33.130;-117.188;2023-10-08T13:29:13;7.65;;;4.20;;
37847;SDS011;23688;33.130;-117.188;2023-10-08T13:31:40;8.20;;;4.25;;
37847;SDS011;23688;33.130;-117.188;2023-10-08T13:34:06;5.43;;;4.50;;
37847;SDS011;23688;33.130;-117.188;2023-10-08T13:36:37;8.00;;;5.05;;
37847;SDS011;23688;33.130;-117.188;2023-10-08T13:39:05;11.38;;;5.65;;
37847;SDS011;23688;33.130;-117.188;2023-10-08T13:41:35;9.82;;;5.30;;
37847;SDS011;23688;33.130;-117.188;2023-10-08T13:44:03;11.18;;;4.50;;
37847;SDS011;23688;33.130;-117.188;2023-10-08T13:46:33;7.32;;;3.83;;
37847;SDS011;23688;33.130;-117.188;2023-10-08T13:49:03;8.35;;;4.90;;
37847;SDS011;23688;33.130;-117.188;2023-10-08T13:51:33;8.85;;;4.15;;
37847;SDS011;23688;33.130;-117.188;2023-10-08T13:54:01;6.45;;;4.65;;
37847;SDS011;23688;33.130;-117.188;2023-10-08T13:56:34;12.52;;;4.97;;
37847;SDS011;23688;33.130;-117.188;2023-10-08T13:59:03;7.57;;;5.43;;
37847;SDS011;23688;33.130;-117.188;2023-10-08T14:01:40;6.30;;;5.15;;
37847;SDS011;23688;33.130;-117.188;2023-10-08T14:04:08;17.80;;;6.00;;
37847;SDS011;23688;33.130;-117.188;2023-10-08T14:06:35;8.77;;;4.80;;
37847;SDS011;23688;33.130;-117.188;2023-10-08T14:11:34;11.65;;;5.65;;
37847;SDS011;23688;33.130;-117.188;2023-10-08T14:14:01;9.98;;;4.45;;
37847;SDS011;23688;33.130;-117.188;2023-10-08T14:16:36;9.00;;;3.78;;
37847;SDS011;23688;33.130;-117.188;2023-10-08T14:19:07;8.95;;;4.40;;
37847;SDS011;23688;33.130;-117.188;2023-10-08T14:21:38;15.98;;;4.15;;
37847;SDS011;23688;33.130;-117.188;2023-10-08T14:24:19;6.03;;;4.35;;
37847;SDS011;23688;33.130;-117.188;2023-10-08T14:26:45;7.28;;;4.60;;
37847;SDS011;23688;33.130;-117.188;2023-10-08T14:29:20;6.60;;;3.85;;
37847;SDS011;23688;33.130;-117.188;2023-10-08T14:31:46;7.82;;;4.57;;
37847;SDS011;23688;33.130;-117.188;2023-10-08T14:34:15;5.55;;;3.92;;
37847;SDS011;23688;33.130;-117.188;2023-10-08T14:36:45;9.10;;;4.47;;
37847;SDS011;23688;33.130;-117.188;2023-10-08T14:39:32;9.52;;;5.18;;
37847;SDS011;23688;33.130;-117.188;2023-10-08T14:42:17;8.98;;;5.00;;
37847;SDS011;23688;33.130;-117.188;2023-10-08T14:45:02;11.45;;;4.78;;
37847;SDS011;23688;33.130;-117.188;2023-10-08T14:47:38;6.50;;;4.93;;
37847;SDS011;23688;33.130;-117.188;2023-10-08T14:50:05;8.93;;;4.53;;
37847;SDS011;23688;33.130;-117.188;2023-10-08T14:52:44;8.95;;;5.13;;
37847;SDS011;23688;33.130;-117.188;2023-10-08T14:55:11;8.98;;;4.65;;
37847;SDS011;23688;33.130;-117.188;2023-10-08T14:57:38;6.40;;;4.70;;
37847;SDS011;23688;33.130;-117.188;2023-10-08T15:00:07;6.53;;;3.92;;